createdAt,value
2018-05-26T00:01:07.787Z,1014.52
2018-05-26T00:02:16.445Z,1014.49
2018-05-26T00:03:25.094Z,1014.49
2018-05-26T00:04:33.746Z,1014.48
2018-05-26T00:05:42.385Z,1014.51
2018-05-26T00:06:51.044Z,1014.5
2018-05-26T00:07:59.690Z,1014.51
2018-05-26T00:09:08.338Z,1014.53
2018-05-26T00:10:16.977Z,1014.5
2018-05-26T00:11:25.628Z,1014.54
2018-05-26T00:12:34.283Z,1014.53
2018-05-26T00:13:42.929Z,1014.54
2018-05-26T00:14:51.578Z,1014.55
2018-05-26T00:16:00.217Z,1014.55
2018-05-26T00:17:08.868Z,1014.54
2018-05-26T00:18:17.521Z,1014.51
2018-05-26T00:19:26.158Z,1014.57
2018-05-26T00:20:34.816Z,1014.6
2018-05-26T00:21:43.461Z,1014.59
2018-05-26T00:22:52.116Z,1014.61
2018-05-26T00:24:00.757Z,1014.6
2018-05-26T00:25:09.415Z,1014.6
2018-05-26T00:26:18.060Z,1014.62
2018-05-26T00:27:26.712Z,1014.61
2018-05-26T00:28:35.352Z,1014.63
2018-05-26T00:29:44.008Z,1014.65
2018-05-26T00:30:52.661Z,1014.64
2018-05-26T00:32:01.315Z,1014.6
2018-05-26T00:33:09.964Z,1014.6
2018-05-26T00:34:18.609Z,1014.61
2018-05-26T00:35:27.792Z,1014.59
2018-05-26T00:36:36.437Z,1014.59
2018-05-26T00:37:45.099Z,1014.59
2018-05-26T00:38:53.732Z,1014.59
2018-05-26T00:40:02.384Z,1014.54
2018-05-26T00:41:11.295Z,1014.58
2018-05-26T00:42:19.954Z,1014.58
2018-05-26T00:43:28.858Z,1014.59
2018-05-26T00:44:37.508Z,1014.58
2018-05-26T00:45:46.153Z,1014.55
2018-05-26T00:46:55.086Z,1014.57
2018-05-26T00:48:03.731Z,1014.56
2018-05-26T00:49:12.378Z,1014.58
2018-05-26T00:50:21.022Z,1014.53
2018-05-26T00:51:29.672Z,1014.55
2018-05-26T00:52:38.327Z,1014.52
2018-05-26T00:53:46.967Z,1014.49
2018-05-26T00:54:55.621Z,1014.55
2018-05-26T00:56:04.261Z,1014.52
2018-05-26T00:57:12.919Z,1014.53
2018-05-26T00:58:21.565Z,1014.55
2018-05-26T00:59:30.222Z,1014.54
2018-05-26T01:00:39.117Z,1014.52
2018-05-26T01:01:47.772Z,1014.54
2018-05-26T01:02:56.424Z,1014.51
2018-05-26T01:04:05.073Z,1014.52
2018-05-26T01:05:13.711Z,1014.5
2018-05-26T01:06:22.363Z,1014.49
2018-05-26T01:07:31.016Z,1014.48
2018-05-26T01:08:39.668Z,1014.47
2018-05-26T01:09:48.318Z,1014.45
2018-05-26T01:10:57.228Z,1014.44
2018-05-26T01:12:06.146Z,1014.46
2018-05-26T01:13:14.784Z,1014.5
2018-05-26T01:14:23.440Z,1014.51
2018-05-26T01:15:32.081Z,1014.5
2018-05-26T01:16:40.732Z,1014.51
2018-05-26T01:17:49.383Z,1014.55
2018-05-26T01:18:58.035Z,1014.52
2018-05-26T01:20:06.679Z,1014.53
2018-05-26T01:21:15.329Z,1014.52
2018-05-26T01:22:23.977Z,1014.56
2018-05-26T01:23:32.625Z,1014.55
2018-05-26T01:24:41.538Z,1014.58
2018-05-26T01:25:50.187Z,1014.52
2018-05-26T01:26:58.831Z,1014.5
2018-05-26T01:28:07.478Z,1014.52
2018-05-26T01:29:16.127Z,1014.52
2018-05-26T01:30:24.778Z,1014.49
2018-05-26T01:31:33.686Z,1014.54
2018-05-26T01:32:42.329Z,1014.52
2018-05-26T01:33:51.248Z,1014.53
2018-05-26T01:34:59.894Z,1014.55
2018-05-26T01:36:08.554Z,1014.54
2018-05-26T01:37:17.987Z,1014.51
2018-05-26T01:38:26.641Z,1014.53
2018-05-26T01:39:35.291Z,1014.51
2018-05-26T01:40:43.940Z,1014.5
2018-05-26T01:41:52.581Z,1014.52
2018-05-26T01:43:01.232Z,1014.52
2018-05-26T01:44:10.410Z,1014.54
2018-05-26T01:45:19.325Z,1014.53
2018-05-26T01:46:27.975Z,1014.55
2018-05-26T01:47:36.619Z,1014.53
2018-05-26T01:48:45.268Z,1014.51
2018-05-26T01:49:53.915Z,1014.47
2018-05-26T01:51:02.570Z,1014.49
2018-05-26T01:52:11.221Z,1014.52
2018-05-26T01:53:19.867Z,1014.51
2018-05-26T01:54:28.520Z,1014.54
2018-05-26T01:55:37.170Z,1014.55
2018-05-26T01:56:45.814Z,1014.53
2018-05-26T01:57:54.464Z,1014.57
2018-05-26T01:59:03.109Z,1014.54
2018-05-26T02:00:11.759Z,1014.55
2018-05-26T02:01:20.402Z,1014.53
2018-05-26T02:02:29.051Z,1014.55
2018-05-26T02:03:37.696Z,1014.54
2018-05-26T02:04:46.341Z,1014.56
2018-05-26T02:05:54.998Z,1014.57
2018-05-26T02:07:03.903Z,1014.54
2018-05-26T02:08:12.549Z,1014.57
2018-05-26T02:09:21.190Z,1014.55
2018-05-26T02:10:29.843Z,1014.57
2018-05-26T02:11:38.760Z,1014.52
2018-05-26T02:12:47.674Z,1014.53
2018-05-26T02:13:56.316Z,1014.52
2018-05-26T02:15:04.967Z,1014.53
2018-05-26T02:16:13.617Z,1014.53
2018-05-26T02:17:22.271Z,1014.57
2018-05-26T02:18:30.912Z,1014.57
2018-05-26T02:19:39.562Z,1014.57
2018-05-26T02:20:48.208Z,1014.56
2018-05-26T02:21:56.860Z,1014.57
2018-05-26T02:23:05.780Z,1014.57
2018-05-26T02:24:14.429Z,1014.56
2018-05-26T02:25:23.077Z,1014.54
2018-05-26T02:26:31.724Z,1014.52
2018-05-26T02:27:40.638Z,1014.48
2018-05-26T02:28:49.282Z,1014.51
2018-05-26T02:29:58.190Z,1014.49
2018-05-26T02:31:06.838Z,1014.48
2018-05-26T02:32:16.032Z,1014.48
2018-05-26T02:33:24.676Z,1014.48
2018-05-26T02:34:33.590Z,1014.46
2018-05-26T02:35:42.503Z,1014.48
2018-05-26T02:36:51.420Z,1014.46
2018-05-26T02:38:00.335Z,1014.52
2018-05-26T02:39:08.981Z,1014.54
2018-05-26T02:40:17.627Z,1014.48
2018-05-26T02:41:26.283Z,1014.5
2018-05-26T02:42:35.196Z,1014.49
2018-05-26T02:43:43.845Z,1014.46
2018-05-26T02:44:52.492Z,1014.47
2018-05-26T02:46:01.142Z,1014.51
2018-05-26T02:47:09.799Z,1014.45
2018-05-26T02:48:18.449Z,1014.47
2018-05-26T02:49:27.364Z,1014.47
2018-05-26T02:50:36.007Z,1014.49
2018-05-26T02:51:44.668Z,1014.51
2018-05-26T02:52:53.320Z,1014.51
2018-05-26T02:54:02.245Z,1014.49
2018-05-26T02:55:10.888Z,1014.53
2018-05-26T02:56:19.543Z,1014.5
2018-05-26T02:57:28.203Z,1014.51
2018-05-26T02:58:36.855Z,1014.52
2018-05-26T02:59:45.773Z,1014.5
2018-05-26T03:00:54.424Z,1014.5
2018-05-26T03:02:03.856Z,1014.53
2018-05-26T03:03:13.119Z,1014.54
2018-05-26T03:04:22.526Z,1014.52
2018-05-26T03:05:31.441Z,1014.58
2018-05-26T03:06:40.416Z,1014.54
2018-05-26T03:07:49.216Z,1014.51
2018-05-26T03:08:58.375Z,1014.51
2018-05-26T03:10:07.657Z,1014.54
2018-05-26T03:11:16.308Z,1014.51
2018-05-26T03:12:24.955Z,1014.54
2018-05-26T03:13:33.611Z,1014.5
2018-05-26T03:14:42.526Z,1014.5
2018-05-26T03:15:51.445Z,1014.54
2018-05-26T03:17:00.352Z,1014.48
2018-05-26T03:18:09.536Z,1014.49
2018-05-26T03:19:18.452Z,1014.5
2018-05-26T03:20:27.093Z,1014.54
2018-05-26T03:21:35.745Z,1014.53
2018-05-26T03:22:44.911Z,1014.56
2018-05-26T03:23:53.835Z,1014.55
2018-05-26T03:25:02.477Z,1014.58
2018-05-26T03:26:11.130Z,1014.56
2018-05-26T03:27:19.768Z,1014.55
2018-05-26T03:28:28.420Z,1014.59
2018-05-26T03:29:37.066Z,1014.58
2018-05-26T03:30:45.715Z,1014.58
2018-05-26T03:31:54.621Z,1014.58
2018-05-26T03:33:03.271Z,1014.6
2018-05-26T03:34:11.922Z,1014.57
2018-05-26T03:35:20.571Z,1014.56
2018-05-26T03:36:29.483Z,1014.56
2018-05-26T03:37:38.384Z,1014.54
2018-05-26T03:38:47.036Z,1014.59
2018-05-26T03:39:55.681Z,1014.54
2018-05-26T03:41:04.337Z,1014.56
2018-05-26T03:42:12.975Z,1014.52
2018-05-26T03:43:21.627Z,1014.56
2018-05-26T03:44:30.268Z,1014.55
2018-05-26T03:45:38.925Z,1014.56
2018-05-26T03:46:47.835Z,1014.54
2018-05-26T03:47:57.036Z,1014.6
2018-05-26T03:49:05.681Z,1014.59
2018-05-26T03:50:14.336Z,1014.6
2018-05-26T03:51:23.241Z,1014.64
2018-05-26T03:52:32.145Z,1014.64
2018-05-26T03:53:41.064Z,1014.66
2018-05-26T03:54:49.707Z,1014.66
2018-05-26T03:55:58.357Z,1014.68
2018-05-26T03:57:07.002Z,1014.7
2018-05-26T03:58:15.653Z,1014.7
2018-05-26T03:59:24.559Z,1014.73
2018-05-26T04:00:33.214Z,1014.77
2018-05-26T04:01:41.855Z,1014.76
2018-05-26T04:02:50.506Z,1014.77
2018-05-26T04:03:59.141Z,1014.8
2018-05-26T04:05:08.073Z,1014.8
2018-05-26T04:06:16.725Z,1014.77
2018-05-26T04:07:25.635Z,1014.82
2018-05-26T04:08:34.285Z,1014.85
2018-05-26T04:09:42.934Z,1014.85
2018-05-26T04:10:51.590Z,1014.87
2018-05-26T04:12:00.235Z,1014.96
2018-05-26T04:13:08.884Z,1014.93
2018-05-26T04:14:17.539Z,1014.95
2018-05-26T04:15:26.181Z,1014.97
2018-05-26T04:16:34.834Z,1014.97
2018-05-26T04:17:43.473Z,1014.97
2018-05-26T04:18:52.132Z,1014.97
2018-05-26T04:20:00.773Z,1015
2018-05-26T04:21:09.424Z,1015
2018-05-26T04:22:18.061Z,1015.01
2018-05-26T04:23:26.724Z,1015.01
2018-05-26T04:24:35.372Z,1015.05
2018-05-26T04:25:44.277Z,1015.04
2018-05-26T04:26:52.915Z,1015.07
2018-05-26T04:28:01.561Z,1015.07
2018-05-26T04:29:10.484Z,1015.09
2018-05-26T04:30:19.131Z,1015.06
2018-05-26T04:31:28.053Z,1015.07
2018-05-26T04:32:36.691Z,1015.09
2018-05-26T04:33:45.343Z,1015.09
2018-05-26T04:34:54.000Z,1015.11
2018-05-26T04:36:02.911Z,1015.15
2018-05-26T04:37:11.551Z,1015.15
2018-05-26T04:38:20.202Z,1015.16
2018-05-26T04:39:28.848Z,1015.19
2018-05-26T04:40:37.500Z,1015.22
2018-05-26T04:41:46.666Z,1015.22
2018-05-26T04:42:55.316Z,1015.25
2018-05-26T04:44:03.962Z,1015.21
2018-05-26T04:45:12.621Z,1015.23
2018-05-26T04:46:21.268Z,1015.24
2018-05-26T04:47:30.178Z,1015.22
2018-05-26T04:48:38.823Z,1015.22
2018-05-26T04:49:47.729Z,1015.25
2018-05-26T04:50:56.648Z,1015.23
2018-05-26T04:52:05.295Z,1015.22
2018-05-26T04:53:13.948Z,1015.17
2018-05-26T04:54:22.588Z,1015.22
2018-05-26T04:55:31.243Z,1015.21
2018-05-26T04:56:39.884Z,1015.18
2018-05-26T04:57:48.804Z,1015.2
2018-05-26T04:58:57.704Z,1015.2
2018-05-26T05:00:06.622Z,1015.19
2018-05-26T05:01:15.266Z,1015.22
2018-05-26T05:02:23.917Z,1015.22
2018-05-26T05:03:32.553Z,1015.23
2018-05-26T05:04:41.200Z,1015.22
2018-05-26T05:05:49.855Z,1015.23
2018-05-26T05:06:58.770Z,1015.22
2018-05-26T05:08:07.420Z,1015.24
2018-05-26T05:09:16.059Z,1015.28
2018-05-26T05:10:24.982Z,1015.3
2018-05-26T05:11:33.629Z,1015.27
2018-05-26T05:12:42.282Z,1015.3
2018-05-26T05:13:50.926Z,1015.3
2018-05-26T05:14:59.838Z,1015.32
2018-05-26T05:16:08.489Z,1015.35
2018-05-26T05:17:17.141Z,1015.31
2018-05-26T05:18:25.786Z,1015.34
2018-05-26T05:19:34.437Z,1015.34
2018-05-26T05:20:43.084Z,1015.33
2018-05-26T05:21:51.737Z,1015.32
2018-05-26T05:23:00.384Z,1015.34
2018-05-26T05:24:09.035Z,1015.31
2018-05-26T05:25:17.680Z,1015.3
2018-05-26T05:26:26.328Z,1015.32
2018-05-26T05:27:34.981Z,1015.34
2018-05-26T05:28:43.627Z,1015.37
2018-05-26T05:29:52.277Z,1015.42
2018-05-26T05:31:00.921Z,1015.41
2018-05-26T05:32:09.575Z,1015.42
2018-05-26T05:33:18.222Z,1015.44
2018-05-26T05:34:26.869Z,1015.44
2018-05-26T05:35:35.513Z,1015.43
2018-05-26T05:36:44.166Z,1015.43
2018-05-26T05:37:52.811Z,1015.44
2018-05-26T05:39:01.462Z,1015.45
2018-05-26T05:40:10.373Z,1015.49
2018-05-26T05:41:19.026Z,1015.52
2018-05-26T05:42:27.674Z,1015.5
2018-05-26T05:43:36.322Z,1015.46
2018-05-26T05:44:44.974Z,1015.48
2018-05-26T05:45:53.619Z,1015.48
2018-05-26T05:47:02.268Z,1015.49
2018-05-26T05:48:10.919Z,1015.51
2018-05-26T05:49:19.845Z,1015.5
2018-05-26T05:50:28.487Z,1015.52
2018-05-26T05:51:37.136Z,1015.56
2018-05-26T05:52:45.786Z,1015.54
2018-05-26T05:53:54.442Z,1015.59
2018-05-26T05:55:03.091Z,1015.56
2018-05-26T05:56:11.808Z,1015.59
2018-05-26T05:57:20.389Z,1015.61
2018-05-26T05:58:29.046Z,1015.58
2018-05-26T05:59:37.692Z,1015.57
2018-05-26T06:00:46.344Z,1015.59
2018-05-26T06:01:54.991Z,1015.6
2018-05-26T06:03:03.643Z,1015.6
2018-05-26T06:04:12.301Z,1015.63
2018-05-26T06:05:21.214Z,1015.68
2018-05-26T06:06:30.146Z,1015.63
2018-05-26T06:07:38.770Z,1015.64
2018-05-26T06:08:47.425Z,1015.65
2018-05-26T06:09:56.070Z,1015.63
2018-05-26T06:11:04.724Z,1015.66
2018-05-26T06:12:13.628Z,1015.66
2018-05-26T06:13:22.285Z,1015.69
2018-05-26T06:14:30.932Z,1015.66
2018-05-26T06:15:39.852Z,1015.69
2018-05-26T06:16:48.759Z,1015.71
2018-05-26T06:17:57.408Z,1015.72
2018-05-26T06:19:06.063Z,1015.71
2018-05-26T06:20:14.710Z,1015.72
2018-05-26T06:21:23.363Z,1015.77
2018-05-26T06:22:32.003Z,1015.78
2018-05-26T06:23:40.931Z,1015.82
2018-05-26T06:24:49.576Z,1015.86
2018-05-26T06:25:58.238Z,1015.85
2018-05-26T06:27:06.881Z,1015.85
2018-05-26T06:28:15.531Z,1015.86
2018-05-26T06:29:24.176Z,1015.86
2018-05-26T06:30:32.835Z,1015.83
2018-05-26T06:31:41.513Z,1015.88
2018-05-26T06:32:50.125Z,1015.87
2018-05-26T06:33:58.779Z,1015.89
2018-05-26T06:35:07.438Z,1015.87
2018-05-26T06:36:16.362Z,1015.94
2018-05-26T06:37:25.270Z,1015.9
2018-05-26T06:38:34.177Z,1015.9
2018-05-26T06:39:42.824Z,1015.92
2018-05-26T06:40:51.483Z,1015.88
2018-05-26T06:42:00.392Z,1015.91
2018-05-26T06:43:09.313Z,1015.96
2018-05-26T06:44:17.960Z,1015.94
2018-05-26T06:45:26.611Z,1015.93
2018-05-26T06:46:35.515Z,1015.93
2018-05-26T06:47:44.168Z,1015.94
2018-05-26T06:48:52.809Z,1015.95
2018-05-26T06:50:01.471Z,1015.96
2018-05-26T06:51:10.128Z,1015.94
2018-05-26T06:52:18.780Z,1015.97
2018-05-26T06:53:27.684Z,1015.95
2018-05-26T06:54:36.337Z,1015.95
2018-05-26T06:55:44.992Z,1015.89
2018-05-26T06:56:53.650Z,1015.93
2018-05-26T06:58:02.566Z,1015.91
2018-05-26T06:59:11.212Z,1015.95
2018-05-26T07:00:19.903Z,1015.93
2018-05-26T07:01:28.509Z,1015.95
2018-05-26T07:02:37.168Z,1015.92
2018-05-26T07:03:45.810Z,1015.93
2018-05-26T07:04:54.728Z,1015.9
2018-05-26T07:06:03.636Z,1015.93
2018-05-26T07:07:12.295Z,1015.9
2018-05-26T07:08:20.940Z,1015.9
2018-05-26T07:09:29.594Z,1015.91
2018-05-26T07:10:38.242Z,1015.92
2018-05-26T07:11:46.902Z,1015.9
2018-05-26T07:12:55.550Z,1015.85
2018-05-26T07:14:04.468Z,1015.87
2018-05-26T07:15:13.115Z,1015.88
2018-05-26T07:16:21.766Z,1015.86
2018-05-26T07:17:30.423Z,1015.86
2018-05-26T07:18:39.076Z,1015.84
2018-05-26T07:19:47.726Z,1015.84
2018-05-26T07:20:56.640Z,1015.83
2018-05-26T07:22:05.296Z,1015.85
2018-05-26T07:23:13.948Z,1015.82
2018-05-26T07:24:22.601Z,1015.82
2018-05-26T07:25:31.523Z,1015.85
2018-05-26T07:26:40.177Z,1015.81
2018-05-26T07:27:48.883Z,1015.84
2018-05-26T07:28:57.484Z,1015.85
2018-05-26T07:30:06.403Z,1015.87
2018-05-26T07:31:15.057Z,1015.87
2018-05-26T07:32:23.709Z,1015.84
2018-05-26T07:33:32.623Z,1015.82
2018-05-26T07:34:41.277Z,1015.83
2018-05-26T07:35:49.926Z,1015.82
2018-05-26T07:36:58.575Z,1015.78
2018-05-26T07:38:07.229Z,1015.76
2018-05-26T07:39:15.883Z,1015.79
2018-05-26T07:40:24.536Z,1015.79
2018-05-26T07:41:33.189Z,1015.79
2018-05-26T07:42:42.098Z,1015.78
2018-05-26T07:43:50.753Z,1015.79
2018-05-26T07:44:59.405Z,1015.75
2018-05-26T07:46:08.060Z,1015.72
2018-05-26T07:47:16.720Z,1015.73
2018-05-26T07:48:25.701Z,1015.71
2018-05-26T07:49:34.351Z,1015.74
2018-05-26T07:50:43.005Z,1015.71
2018-05-26T07:51:51.688Z,1015.76
2018-05-26T07:53:00.302Z,1015.75
2018-05-26T07:54:08.959Z,1015.76
2018-05-26T07:55:17.609Z,1015.76
2018-05-26T07:56:26.696Z,1015.72
2018-05-26T07:57:35.571Z,1015.76
2018-05-26T07:58:44.229Z,1015.76
2018-05-26T07:59:52.875Z,1015.75
2018-05-26T08:01:01.812Z,1015.76
2018-05-26T08:02:10.459Z,1015.72
2018-05-26T08:03:19.117Z,1015.73
2018-05-26T08:04:27.764Z,1015.72
2018-05-26T08:05:36.415Z,1015.76
2018-05-26T08:06:45.072Z,1015.73
2018-05-26T08:07:53.722Z,1015.72
2018-05-26T08:09:02.374Z,1015.76
2018-05-26T08:10:11.023Z,1015.74
2018-05-26T08:11:19.674Z,1015.76
2018-05-26T08:12:28.330Z,1015.77
2018-05-26T08:13:36.979Z,1015.74
2018-05-26T08:14:45.632Z,1015.76
2018-05-26T08:15:54.280Z,1015.77
2018-05-26T08:17:02.995Z,1015.76
2018-05-26T08:18:11.954Z,1015.78
2018-05-26T08:19:20.607Z,1015.74
2018-05-26T08:20:29.255Z,1015.77
2018-05-26T08:21:37.910Z,1015.76
2018-05-26T08:22:46.564Z,1015.76
2018-05-26T08:23:55.216Z,1015.77
2018-05-26T08:25:03.868Z,1015.78
2018-05-26T08:26:12.808Z,1015.77
2018-05-26T08:27:21.490Z,1015.77
2018-05-26T08:28:30.118Z,1015.82
2018-05-26T08:29:38.772Z,1015.75
2018-05-26T08:30:47.421Z,1015.76
2018-05-26T08:31:56.075Z,1015.76
2018-05-26T08:33:04.730Z,1015.78
2018-05-26T08:34:13.389Z,1015.79
2018-05-26T08:35:22.038Z,1015.78
2018-05-26T08:36:30.705Z,1015.78
2018-05-26T08:37:39.631Z,1015.79
2018-05-26T08:38:48.286Z,1015.81
2018-05-26T08:39:56.934Z,1015.83
2018-05-26T08:41:05.590Z,1015.83
2018-05-26T08:42:14.239Z,1015.87
2018-05-26T08:43:23.158Z,1015.87
2018-05-26T08:44:31.805Z,1015.87
2018-05-26T08:45:40.457Z,1015.9
2018-05-26T08:46:49.112Z,1015.91
2018-05-26T08:47:57.757Z,1015.9
2018-05-26T08:49:06.688Z,1015.88
2018-05-26T08:50:15.608Z,1015.91
2018-05-26T08:51:24.526Z,1015.9
2018-05-26T08:52:33.177Z,1015.92
2018-05-26T08:53:42.159Z,1015.91
2018-05-26T08:54:50.849Z,1015.95
2018-05-26T08:55:59.420Z,1015.91
2018-05-26T08:57:08.353Z,1015.93
2018-05-26T08:58:17.017Z,1015.95
2018-05-26T08:59:25.668Z,1015.99
2018-05-26T09:00:34.322Z,1015.99
2018-05-26T09:01:42.977Z,1016.01
2018-05-26T09:02:51.892Z,1016
2018-05-26T09:04:00.543Z,1016.03
2018-05-26T09:05:09.205Z,1016.03
2018-05-26T09:06:17.858Z,1016.03
2018-05-26T09:07:26.825Z,1016.06
2018-05-26T09:08:35.483Z,1016.02
2018-05-26T09:09:44.132Z,1016.08
2018-05-26T09:10:52.795Z,1016.09
2018-05-26T09:12:01.440Z,1016.06
2018-05-26T09:13:10.106Z,1016.07
2018-05-26T09:14:18.754Z,1016.06
2018-05-26T09:15:27.418Z,1016.03
2018-05-26T09:16:36.064Z,1016.01
2018-05-26T09:17:44.993Z,1016.05
2018-05-26T09:18:53.647Z,1016.07
2018-05-26T09:20:02.310Z,1016.1
2018-05-26T09:21:10.959Z,1016.09
2018-05-26T09:22:19.610Z,1016.1
2018-05-26T09:23:28.258Z,1016.09
2018-05-26T09:24:36.909Z,1016.07
2018-05-26T09:25:45.569Z,1016.06
2018-05-26T09:26:54.219Z,1016.08
2018-05-26T09:28:02.876Z,1016.06
2018-05-26T09:29:11.527Z,1016.06
2018-05-26T09:30:20.515Z,1016.05
2018-05-26T09:31:29.106Z,1016.11
2018-05-26T09:32:38.030Z,1016.11
2018-05-26T09:33:46.669Z,1016.14
2018-05-26T09:34:55.331Z,1016.09
2018-05-26T09:36:03.987Z,1016.11
2018-05-26T09:37:12.642Z,1016.12
2018-05-26T09:38:21.288Z,1016.12
2018-05-26T09:39:29.943Z,1016.08
2018-05-26T09:40:38.606Z,1016.09
2018-05-26T09:41:47.268Z,1016.12
2018-05-26T09:42:55.921Z,1016.12
2018-05-26T09:44:04.571Z,1016.13
2018-05-26T09:45:13.223Z,1016.13
2018-05-26T09:46:21.878Z,1016.08
2018-05-26T09:47:30.534Z,1016.05
2018-05-26T09:48:39.177Z,1016.04
2018-05-26T09:49:47.835Z,1016.11
2018-05-26T09:50:56.481Z,1016.13
2018-05-26T09:52:05.145Z,1016.06
2018-05-26T09:53:13.789Z,1016.09
2018-05-26T09:54:22.449Z,1016.1
2018-05-26T09:55:31.095Z,1016.08
2018-05-26T09:56:40.026Z,1016.07
2018-05-26T09:57:48.684Z,1016.07
2018-05-26T09:58:57.330Z,1016.06
2018-05-26T10:00:06.242Z,1016.06
2018-05-26T10:01:15.168Z,1016.06
2018-05-26T10:02:23.829Z,1016.02
2018-05-26T10:03:32.479Z,1016.03
2018-05-26T10:04:41.133Z,1016.04
2018-05-26T10:05:49.793Z,1016.03
2018-05-26T10:06:58.443Z,1016.02
2018-05-26T10:08:07.098Z,1016.02
2018-05-26T10:09:16.031Z,1016.05
2018-05-26T10:10:24.967Z,1016.09
2018-05-26T10:11:33.882Z,1016.03
2018-05-26T10:12:42.538Z,1016.11
2018-05-26T10:13:51.203Z,1016.12
2018-05-26T10:14:59.860Z,1016.08
2018-05-26T10:16:08.516Z,1016.12
2018-05-26T10:17:17.172Z,1016.09
2018-05-26T10:18:25.826Z,1016.13
2018-05-26T10:19:34.479Z,1016.08
2018-05-26T10:20:43.408Z,1016.09
2018-05-26T10:21:52.058Z,1016.08
2018-05-26T10:23:00.712Z,1016.08
2018-05-26T10:24:09.358Z,1016.07
2018-05-26T10:25:18.019Z,1016.1
2018-05-26T10:26:26.673Z,1016.06
2018-05-26T10:27:35.595Z,1016.05
2018-05-26T10:28:44.511Z,1016.09
2018-05-26T10:29:53.443Z,1016.05
2018-05-26T10:31:02.358Z,1016.05
2018-05-26T10:32:11.284Z,1016.04
2018-05-26T10:33:20.239Z,1016.06
2018-05-26T10:34:28.896Z,1016.05
2018-05-26T10:35:37.631Z,1015.96
2018-05-26T10:36:46.208Z,1016
2018-05-26T10:37:54.865Z,1015.96
2018-05-26T10:39:03.523Z,1015.97
2018-05-26T10:40:12.450Z,1015.96
2018-05-26T10:41:21.106Z,1016.04
2018-05-26T10:42:29.763Z,1016.02
2018-05-26T10:43:38.681Z,1016.03
2018-05-26T10:44:47.334Z,1016
2018-05-26T10:45:56.001Z,1015.97
2018-05-26T10:47:04.665Z,1015.95
2018-05-26T10:48:13.312Z,1015.98
2018-05-26T10:49:21.968Z,1015.96
2018-05-26T10:50:30.619Z,1015.98
2018-05-26T10:51:39.281Z,1015.94
2018-05-26T10:52:48.200Z,1015.93
2018-05-26T10:53:56.859Z,1015.95
2018-05-26T10:55:05.517Z,1015.99
2018-05-26T10:56:14.163Z,1015.97
2018-05-26T10:57:22.821Z,1015.96
2018-05-26T10:58:31.478Z,1015.99
2018-05-26T10:59:40.132Z,1016
2018-05-26T11:00:48.782Z,1015.99
2018-05-26T11:01:57.442Z,1016
2018-05-26T11:03:06.094Z,1015.98
2018-05-26T11:04:14.821Z,1016.02
2018-05-26T11:05:23.666Z,1015.98
2018-05-26T11:06:32.327Z,1015.96
2018-05-26T11:07:40.979Z,1016
2018-05-26T11:08:49.907Z,1015.95
2018-05-26T11:09:58.554Z,1015.98
2018-05-26T11:11:07.743Z,1016
2018-05-26T11:12:16.404Z,1015.99
2018-05-26T11:13:25.116Z,1015.96
2018-05-26T11:14:33.761Z,1015.95
2018-05-26T11:15:42.366Z,1016.04
2018-05-26T11:16:51.031Z,1016.03
2018-05-26T11:17:59.886Z,1016.08
2018-05-26T11:19:08.347Z,1016.13
2018-05-26T11:20:17.020Z,1016.09
2018-05-26T11:21:25.652Z,1016.09
2018-05-26T11:22:34.309Z,1016.08
2018-05-26T11:23:42.969Z,1016.08
2018-05-26T11:24:51.656Z,1016.06
2018-05-26T11:26:00.615Z,1016.04
2018-05-26T11:27:09.226Z,1016.07
2018-05-26T11:28:18.194Z,1016.07
2018-05-26T11:29:27.097Z,1016.04
2018-05-26T11:30:35.744Z,1016
2018-05-26T11:31:44.397Z,1016.02
2018-05-26T11:32:53.053Z,1016.03
2018-05-26T11:34:01.718Z,1016.02
2018-05-26T11:35:10.365Z,1016
2018-05-26T11:36:19.028Z,1015.97
2018-05-26T11:37:27.961Z,1015.97
2018-05-26T11:38:36.605Z,1015.98
2018-05-26T11:39:45.253Z,1015.92
2018-05-26T11:40:53.914Z,1015.91
2018-05-26T11:42:02.566Z,1015.9
2018-05-26T11:43:11.230Z,1015.88
2018-05-26T11:44:19.884Z,1015.91
2018-05-26T11:45:28.811Z,1015.88
2018-05-26T11:46:37.467Z,1015.84
2018-05-26T11:47:46.116Z,1015.87
2018-05-26T11:48:54.778Z,1015.86
2018-05-26T11:50:03.468Z,1015.79
2018-05-26T11:51:12.366Z,1015.77
2018-05-26T11:52:21.008Z,1015.8
2018-05-26T11:53:29.671Z,1015.84
2018-05-26T11:54:38.324Z,1015.83
2018-05-26T11:55:46.988Z,1015.85
2018-05-26T11:56:55.633Z,1015.81
2018-05-26T11:58:04.294Z,1015.71
2018-05-26T11:59:13.211Z,1015.77
2018-05-26T12:00:21.868Z,1015.71
2018-05-26T12:01:31.062Z,1015.71
2018-05-26T12:02:39.978Z,1015.69
2018-05-26T12:03:48.637Z,1015.71
2018-05-26T12:04:57.285Z,1015.74
2018-05-26T12:06:05.946Z,1015.7
2018-05-26T12:07:14.602Z,1015.7
2018-05-26T12:08:23.521Z,1015.72
2018-05-26T12:09:32.448Z,1015.73
2018-05-26T12:10:41.092Z,1015.72
2018-05-26T12:11:49.753Z,1015.71
2018-05-26T12:12:58.410Z,1015.67
2018-05-26T12:14:07.076Z,1015.66
2018-05-26T12:15:15.987Z,1015.66
2018-05-26T12:16:24.907Z,1015.69
2018-05-26T12:17:33.559Z,1015.68
2018-05-26T12:18:42.224Z,1015.74
2018-05-26T12:19:50.873Z,1015.73
2018-05-26T12:20:59.534Z,1015.68
2018-05-26T12:22:08.450Z,1015.63
2018-05-26T12:23:17.115Z,1015.76
2018-05-26T12:24:25.768Z,1015.75
2018-05-26T12:25:34.422Z,1015.67
2018-05-26T12:26:43.078Z,1015.73
2018-05-26T12:27:52.023Z,1015.69
2018-05-26T12:29:00.689Z,1015.69
2018-05-26T12:30:09.606Z,1015.67
2018-05-26T12:31:18.266Z,1015.64
2018-05-26T12:32:26.919Z,1015.64
2018-05-26T12:33:35.584Z,1015.65
2018-05-26T12:34:44.242Z,1015.66
2018-05-26T12:35:52.903Z,1015.66
2018-05-26T12:37:01.549Z,1015.66
2018-05-26T12:38:10.477Z,1015.71
2018-05-26T12:39:19.132Z,1015.71
2018-05-26T12:40:27.796Z,1015.73
2018-05-26T12:41:36.448Z,1015.67
2018-05-26T12:42:45.104Z,1015.71
2018-05-26T12:43:53.768Z,1015.69
2018-05-26T12:45:02.426Z,1015.7
2018-05-26T12:46:11.086Z,1015.68
2018-05-26T12:47:19.731Z,1015.69
2018-05-26T12:48:28.396Z,1015.61
2018-05-26T12:49:37.572Z,1015.61
2018-05-26T12:50:46.239Z,1015.6
2018-05-26T12:51:54.887Z,1015.63
2018-05-26T12:53:03.549Z,1015.62
2018-05-26T12:54:12.201Z,1015.61
2018-05-26T12:55:20.866Z,1015.57
2018-05-26T12:56:29.514Z,1015.59
2018-05-26T12:57:38.436Z,1015.57
2018-05-26T12:58:47.092Z,1015.61
2018-05-26T12:59:55.758Z,1015.62
2018-05-26T13:01:04.409Z,1015.61
2018-05-26T13:02:13.067Z,1015.59
2018-05-26T13:03:21.720Z,1015.58
2018-05-26T13:04:30.375Z,1015.57
2018-05-26T13:05:39.036Z,1015.56
2018-05-26T13:06:47.692Z,1015.58
2018-05-26T13:07:56.353Z,1015.58
2018-05-26T13:09:05.004Z,1015.55
2018-05-26T13:10:13.668Z,1015.57
2018-05-26T13:11:22.327Z,1015.61
2018-05-26T13:12:30.982Z,1015.67
2018-05-26T13:13:39.636Z,1015.65
2018-05-26T13:14:48.299Z,1015.64
2018-05-26T13:15:56.956Z,1015.62
2018-05-26T13:17:05.616Z,1015.62
2018-05-26T13:18:14.273Z,1015.67
2018-05-26T13:19:22.928Z,1015.66
2018-05-26T13:20:31.591Z,1015.7
2018-05-26T13:21:40.253Z,1015.69
2018-05-26T13:22:48.911Z,1015.7
2018-05-26T13:23:57.563Z,1015.7
2018-05-26T13:25:06.220Z,1015.68
2018-05-26T13:26:14.877Z,1015.63
2018-05-26T13:27:23.539Z,1015.61
2018-05-26T13:28:32.193Z,1015.59
2018-05-26T13:29:41.161Z,1015.6
2018-05-26T13:30:49.778Z,1015.55
2018-05-26T13:31:58.438Z,1015.57
2018-05-26T13:33:07.091Z,1015.58
2018-05-26T13:34:15.750Z,1015.59
2018-05-26T13:35:24.405Z,1015.55
2018-05-26T13:36:33.324Z,1015.55
2018-05-26T13:37:41.980Z,1015.54
2018-05-26T13:38:50.637Z,1015.54
2018-05-26T13:39:59.305Z,1015.58
2018-05-26T13:41:07.958Z,1015.5
2018-05-26T13:42:16.620Z,1015.49
2018-05-26T13:43:25.281Z,1015.48
2018-05-26T13:44:33.942Z,1015.44
2018-05-26T13:45:42.859Z,1015.44
2018-05-26T13:46:51.521Z,1015.44
2018-05-26T13:48:00.444Z,1015.46
2018-05-26T13:49:09.107Z,1015.45
2018-05-26T13:50:18.189Z,1015.47
2018-05-26T13:51:26.866Z,1015.43
2018-05-26T13:52:35.762Z,1015.38
2018-05-26T13:53:44.507Z,1015.4
2018-05-26T13:54:53.402Z,1015.39